createdAt,value
2019-03-28T00:01:56.226Z,11.85
2019-03-28T00:04:30.819Z,12.57
2019-03-28T00:07:02.991Z,13.37
2019-03-28T00:09:35.094Z,14.03
2019-03-28T00:12:07.569Z,12.73
2019-03-28T00:14:40.322Z,13.50
2019-03-28T00:17:12.430Z,13.63
2019-03-28T00:19:44.580Z,14.70
2019-03-28T00:22:26.217Z,13.33
2019-03-28T00:25:03.009Z,14.65
2019-03-28T00:27:35.101Z,14.20
2019-03-28T00:30:08.316Z,14.60
2019-03-28T00:32:40.506Z,13.63
2019-03-28T00:35:13.190Z,13.40
2019-03-28T00:37:45.748Z,13.97
2019-03-28T00:40:18.010Z,13.80
2019-03-28T00:42:50.087Z,13.62
2019-03-28T00:45:22.341Z,14.47
2019-03-28T00:51:39.329Z,14.47
2019-03-28T00:54:12.358Z,13.07
2019-03-28T00:56:47.359Z,14.60
2019-03-28T00:59:18.430Z,14.27
2019-03-28T01:01:50.563Z,14.43
2019-03-28T01:04:22.618Z,14.17
2019-03-28T01:06:54.835Z,13.67
2019-03-28T01:09:26.996Z,13.62
2019-03-28T01:11:58.995Z,14.28
2019-03-28T01:14:31.056Z,14.33
2019-03-28T01:17:03.802Z,14.50
2019-03-28T01:19:35.858Z,14.83
2019-03-28T01:22:08.244Z,15.50
2019-03-28T01:24:40.266Z,15.80
2019-03-28T01:27:12.362Z,15.40
2019-03-28T01:29:44.422Z,15.63
2019-03-28T01:32:16.890Z,14.00
2019-03-28T01:34:49.274Z,16.53
2019-03-28T01:37:21.386Z,15.23
2019-03-28T01:39:53.744Z,14.93
2019-03-28T01:42:26.510Z,16.17
2019-03-28T01:44:59.159Z,14.90
2019-03-28T01:47:31.206Z,14.63
2019-03-28T01:50:03.967Z,15.55
2019-03-28T01:52:36.064Z,13.73
2019-03-28T01:55:08.343Z,15.98
2019-03-28T01:57:40.899Z,14.00
2019-03-28T02:00:13.569Z,14.77
2019-03-28T02:02:46.037Z,14.93
2019-03-28T02:05:18.793Z,14.20
2019-03-28T02:07:50.898Z,14.70
2019-03-28T02:10:24.152Z,14.15
2019-03-28T02:12:56.312Z,13.53
2019-03-28T02:15:29.231Z,13.70
2019-03-28T02:18:01.264Z,14.07
2019-03-28T02:20:33.330Z,13.70
2019-03-28T02:23:05.430Z,12.60
2019-03-28T02:25:37.824Z,14.03
2019-03-28T02:28:10.252Z,14.00
2019-03-28T02:30:42.485Z,13.57
2019-03-28T02:33:15.092Z,12.77
2019-03-28T02:35:48.116Z,13.53
2019-03-28T02:38:20.535Z,13.50
2019-03-28T02:40:53.002Z,12.37
2019-03-28T02:43:25.442Z,13.40
2019-03-28T02:45:57.991Z,12.33
2019-03-28T02:48:30.460Z,13.50
2019-03-28T02:51:03.760Z,12.97
2019-03-28T02:53:36.244Z,12.40
2019-03-28T02:56:08.883Z,12.87
2019-03-28T02:58:40.932Z,13.27
2019-03-28T03:01:14.437Z,13.13
2019-03-28T03:03:46.647Z,12.93
2019-03-28T03:06:18.748Z,13.20
2019-03-28T03:08:51.197Z,13.03
2019-03-28T03:11:23.313Z,13.27
2019-03-28T03:13:55.401Z,12.30
2019-03-28T03:16:27.878Z,12.30
2019-03-28T03:19:00.481Z,13.73
2019-03-28T03:21:32.996Z,13.80
2019-03-28T03:24:05.657Z,13.47
2019-03-28T03:26:37.623Z,13.53
2019-03-28T03:29:09.642Z,12.73
2019-03-28T03:31:41.760Z,13.30
2019-03-28T03:34:13.832Z,13.93
2019-03-28T03:36:45.860Z,12.60
2019-03-28T03:39:18.763Z,13.17
2019-03-28T03:41:50.777Z,13.07
2019-03-28T03:44:23.199Z,12.90
2019-03-28T03:46:55.558Z,13.30
2019-03-28T03:49:27.613Z,13.57
2019-03-28T03:52:00.043Z,12.80
2019-03-28T03:54:32.240Z,12.70
2019-03-28T03:57:04.694Z,13.13
2019-03-28T03:59:37.452Z,12.53
2019-03-28T04:02:10.962Z,13.30
2019-03-28T04:04:43.252Z,13.80
2019-03-28T04:07:15.346Z,12.60
2019-03-28T04:09:47.796Z,13.30
2019-03-28T04:12:19.887Z,14.23
2019-03-28T04:14:52.378Z,14.37
2019-03-28T04:17:24.912Z,14.43
2019-03-28T04:19:56.945Z,14.43
2019-03-28T04:22:29.009Z,14.67
2019-03-28T04:25:01.100Z,14.20
2019-03-28T04:27:34.223Z,13.97
2019-03-28T04:30:06.259Z,14.43
2019-03-28T04:32:38.388Z,14.40
2019-03-28T04:35:10.622Z,13.63
2019-03-28T04:37:43.011Z,14.30
2019-03-28T04:40:15.224Z,14.03
2019-03-28T04:42:47.464Z,14.00
2019-03-28T04:45:19.514Z,14.27
2019-03-28T04:47:51.583Z,14.10
2019-03-28T04:50:23.683Z,14.77
2019-03-28T04:52:55.656Z,14.50
2019-03-28T04:55:27.780Z,14.87
2019-03-28T04:58:00.603Z,14.70
2019-03-28T05:00:33.325Z,14.30
2019-03-28T05:03:06.217Z,15.67
2019-03-28T05:05:38.285Z,15.63
2019-03-28T05:08:10.355Z,16.63
2019-03-28T05:10:42.873Z,15.23
2019-03-28T05:13:14.917Z,14.60
2019-03-28T05:15:47.833Z,14.53
2019-03-28T05:18:20.006Z,15.27
2019-03-28T05:20:52.036Z,14.10
2019-03-28T05:23:24.506Z,13.70
2019-03-28T05:25:57.626Z,13.80
2019-03-28T05:28:30.248Z,15.10
2019-03-28T05:31:02.681Z,13.90
2019-03-28T05:33:34.816Z,16.97
2019-03-28T05:36:07.216Z,14.07
2019-03-28T05:38:39.589Z,14.37
2019-03-28T05:41:12.165Z,13.57
2019-03-28T05:43:45.594Z,13.50
2019-03-28T05:46:17.816Z,13.77
2019-03-28T05:48:49.917Z,12.73
2019-03-28T05:51:21.986Z,13.43
2019-03-28T05:53:54.354Z,12.47
2019-03-28T05:56:26.394Z,12.77
2019-03-28T05:59:10.281Z,13.50
2019-03-28T06:01:32.618Z,13.13
2019-03-28T06:04:05.071Z,12.77
2019-03-28T06:06:37.939Z,12.97
2019-03-28T06:09:10.461Z,12.47
2019-03-28T06:11:42.919Z,12.65
2019-03-28T06:14:14.948Z,12.37
2019-03-28T06:16:47.441Z,12.10
2019-03-28T06:19:19.919Z,12.17
2019-03-28T06:21:52.366Z,11.90
2019-03-28T06:24:25.743Z,11.80
2019-03-28T06:26:57.882Z,12.37
2019-03-28T06:29:30.318Z,12.00
2019-03-28T06:32:02.533Z,12.82
2019-03-28T06:34:34.779Z,12.20
2019-03-28T06:37:06.905Z,13.27
2019-03-28T06:39:38.918Z,12.47
2019-03-28T06:42:11.528Z,12.03
2019-03-28T06:44:43.574Z,11.93
2019-03-28T06:47:16.859Z,12.37
2019-03-28T06:49:49.297Z,12.57
2019-03-28T06:52:21.344Z,11.80
2019-03-28T06:54:53.377Z,11.88
2019-03-28T06:57:25.873Z,11.97
2019-03-28T06:59:58.266Z,12.53
2019-03-28T07:02:30.324Z,11.87
2019-03-28T07:05:03.198Z,11.40
2019-03-28T07:07:35.246Z,11.40
2019-03-28T07:10:08.000Z,11.40
2019-03-28T07:12:40.063Z,11.73
2019-03-28T07:15:12.938Z,10.83
2019-03-28T07:17:45.437Z,11.53
2019-03-28T07:20:17.997Z,11.65
2019-03-28T07:22:50.683Z,10.47
2019-03-28T07:25:25.415Z,11.43
2019-03-28T07:27:56.664Z,10.63
2019-03-28T07:30:28.779Z,10.63
2019-03-28T07:33:00.823Z,10.25
2019-03-28T07:35:33.330Z,10.70
2019-03-28T07:38:05.380Z,10.13
2019-03-28T07:40:38.884Z,10.38
2019-03-28T07:43:10.993Z,10.63
2019-03-28T07:45:43.031Z,11.03
2019-03-28T07:48:15.103Z,11.07
2019-03-28T07:50:47.366Z,10.27
2019-03-28T07:53:20.062Z,10.50
2019-03-28T07:55:53.623Z,10.43
2019-03-28T07:58:26.128Z,10.27
2019-03-28T08:00:58.222Z,10.65
2019-03-28T08:03:30.266Z,10.40
2019-03-28T08:06:03.260Z,10.17
2019-03-28T08:08:38.998Z,9.57
2019-03-28T08:11:10.417Z,11.00
2019-03-28T08:13:42.531Z,9.67
2019-03-28T08:16:14.546Z,10.00
2019-03-28T08:18:47.010Z,10.77
2019-03-28T08:21:19.832Z,9.53
2019-03-28T08:23:53.651Z,9.67
2019-03-28T08:26:26.085Z,10.07
2019-03-28T08:28:58.705Z,9.80
2019-03-28T08:31:30.814Z,10.35
2019-03-28T08:34:02.804Z,9.50
2019-03-28T08:36:36.095Z,8.70
2019-03-28T08:39:09.681Z,8.80
2019-03-28T08:41:42.192Z,8.83
2019-03-28T08:44:22.500Z,8.20
2019-03-28T08:46:57.003Z,8.60
2019-03-28T08:49:29.048Z,9.70
2019-03-28T08:52:01.535Z,9.20
2019-03-28T08:54:34.050Z,7.23
2019-03-28T08:57:06.838Z,6.23
2019-03-28T08:59:40.223Z,6.73
2019-03-28T09:02:12.307Z,7.28
2019-03-28T09:04:44.824Z,6.55
2019-03-28T09:07:17.658Z,6.63
2019-03-28T09:09:50.341Z,6.53
2019-03-28T09:12:22.440Z,6.90
2019-03-28T09:14:55.031Z,6.53
2019-03-28T09:17:27.437Z,6.67
2019-03-28T09:19:59.557Z,5.53
2019-03-28T09:22:31.758Z,5.47
2019-03-28T09:25:04.093Z,5.87
2019-03-28T09:27:36.142Z,6.03
2019-03-28T09:30:09.878Z,5.53
2019-03-28T09:32:42.899Z,6.27
2019-03-28T09:35:20.493Z,5.90
2019-03-28T09:37:52.579Z,5.50
2019-03-28T09:40:25.123Z,5.60
2019-03-28T09:42:58.753Z,5.40
2019-03-28T09:45:31.769Z,6.00
2019-03-28T09:48:04.111Z,5.33
2019-03-28T09:50:36.570Z,5.83
2019-03-28T09:53:09.056Z,5.22
2019-03-28T09:55:42.882Z,5.30
2019-03-28T09:58:15.358Z,4.90
2019-03-28T10:01:01.723Z,5.50
2019-03-28T10:03:21.377Z,5.57
2019-03-28T10:05:53.791Z,5.23
2019-03-28T10:08:26.793Z,5.23
2019-03-28T10:10:59.137Z,4.87
2019-03-28T10:13:31.175Z,5.13
2019-03-28T10:16:03.621Z,4.97
2019-03-28T10:18:35.737Z,4.85
2019-03-28T10:21:07.763Z,5.10
2019-03-28T10:23:40.059Z,5.07
2019-03-28T10:26:12.168Z,5.60
2019-03-28T10:28:44.227Z,5.37
2019-03-28T10:31:17.642Z,5.27
2019-03-28T10:33:51.225Z,7.47
2019-03-28T10:36:24.155Z,5.90
2019-03-28T10:38:56.783Z,4.80
2019-03-28T10:41:29.772Z,5.37
2019-03-28T10:44:01.845Z,5.70
2019-03-28T10:46:34.915Z,6.00
2019-03-28T10:49:08.158Z,5.67
2019-03-28T10:51:40.545Z,5.30
2019-03-28T10:54:20.100Z,4.55
2019-03-28T10:56:52.006Z,5.10
2019-03-28T10:59:23.933Z,5.40
2019-03-28T11:01:55.584Z,5.03
2019-03-28T11:04:27.688Z,5.40
2019-03-28T11:07:00.089Z,4.80
2019-03-28T11:09:32.710Z,4.53
2019-03-28T11:12:04.747Z,5.20
2019-03-28T11:14:36.815Z,5.37
2019-03-28T11:17:09.909Z,4.47
2019-03-28T11:19:42.470Z,4.57
2019-03-28T11:22:15.495Z,4.53
2019-03-28T11:24:48.428Z,4.53
2019-03-28T11:27:20.488Z,4.20
2019-03-28T11:29:52.541Z,4.20
2019-03-28T11:32:25.003Z,5.73
2019-03-28T11:34:57.524Z,4.80
2019-03-28T11:37:29.569Z,4.30
2019-03-28T11:40:01.671Z,4.43
2019-03-28T11:42:33.690Z,4.00
2019-03-28T11:45:09.044Z,4.70
2019-03-28T11:47:40.245Z,4.23
2019-03-28T11:50:16.823Z,4.17
2019-03-28T11:52:47.639Z,3.70
2019-03-28T11:55:19.731Z,4.40
2019-03-28T11:57:52.488Z,3.60
2019-03-28T12:00:25.077Z,3.60
2019-03-28T12:02:58.188Z,3.83
2019-03-28T12:05:30.620Z,4.00
2019-03-28T12:08:03.997Z,3.80
2019-03-28T12:10:36.550Z,3.33
2019-03-28T12:13:08.997Z,3.43
2019-03-28T12:15:42.705Z,3.30
2019-03-28T12:18:15.465Z,4.03
2019-03-28T12:20:47.558Z,3.03
2019-03-28T12:23:19.691Z,2.57
2019-03-28T12:25:52.190Z,2.60
2019-03-28T12:28:24.231Z,2.70
2019-03-28T12:30:57.467Z,2.43
2019-03-28T12:33:29.553Z,2.50
2019-03-28T12:36:01.587Z,2.00
2019-03-28T12:38:34.115Z,2.23
2019-03-28T12:41:06.353Z,2.52
2019-03-28T12:43:38.897Z,2.80
2019-03-28T12:46:11.114Z,2.47
2019-03-28T12:48:43.600Z,2.60
2019-03-28T12:51:15.674Z,2.80
2019-03-28T12:53:47.745Z,2.87
2019-03-28T12:56:20.357Z,2.53
2019-03-28T12:58:52.785Z,2.63
2019-03-28T13:01:25.202Z,3.30
2019-03-28T13:03:57.762Z,3.00
2019-03-28T13:06:30.533Z,3.23
2019-03-28T13:09:03.108Z,2.40
2019-03-28T13:11:36.000Z,2.70
2019-03-28T13:14:08.464Z,2.37
2019-03-28T13:16:40.477Z,2.30
2019-03-28T13:19:12.942Z,2.60
2019-03-28T13:21:45.021Z,2.37
2019-03-28T13:24:17.342Z,2.40
2019-03-28T13:26:49.864Z,2.43
2019-03-28T13:29:21.967Z,2.30
2019-03-28T13:31:54.337Z,2.60
2019-03-28T13:34:26.923Z,2.90
2019-03-28T13:36:59.238Z,2.93
2019-03-28T13:39:31.704Z,2.13
2019-03-28T13:42:04.697Z,1.90
2019-03-28T13:44:36.776Z,2.30
2019-03-28T13:47:09.248Z,2.27
2019-03-28T13:49:41.693Z,2.37
2019-03-28T13:52:14.369Z,2.37
2019-03-28T13:54:46.813Z,2.60
2019-03-28T13:57:19.056Z,2.60
2019-03-28T13:59:51.130Z,2.42
2019-03-28T14:02:24.475Z,2.27
2019-03-28T14:04:57.048Z,2.90
2019-03-28T14:07:29.515Z,2.37
2019-03-28T14:10:02.428Z,2.60
2019-03-28T14:12:34.513Z,2.10
2019-03-28T14:15:08.075Z,2.00
2019-03-28T14:17:41.987Z,2.50
2019-03-28T14:20:15.176Z,2.20
2019-03-28T14:22:47.264Z,2.30
2019-03-28T14:25:19.613Z,2.93
2019-03-28T14:27:52.160Z,2.50
2019-03-28T14:30:24.187Z,2.50
2019-03-28T14:33:10.191Z,2.47
2019-03-28T14:35:30.053Z,2.77
2019-03-28T14:38:02.398Z,2.20
2019-03-28T14:40:34.455Z,2.60
2019-03-28T14:43:07.837Z,2.30
2019-03-28T14:45:40.349Z,2.37
2019-03-28T14:48:12.778Z,2.00
2019-03-28T14:50:45.045Z,2.83
2019-03-28T14:53:17.556Z,3.50
2019-03-28T14:55:50.976Z,3.10
2019-03-28T14:58:24.452Z,4.07
2019-03-28T15:00:58.870Z,4.50
2019-03-28T15:03:30.929Z,2.40
2019-03-28T15:06:04.100Z,2.40
2019-03-28T15:08:36.171Z,2.70
2019-03-28T15:11:08.181Z,2.40
2019-03-28T15:13:40.692Z,2.60
2019-03-28T15:16:13.699Z,2.60
2019-03-28T15:18:45.789Z,2.23
2019-03-28T15:21:18.740Z,2.45
2019-03-28T15:23:51.424Z,2.20
2019-03-28T15:26:23.549Z,2.53
2019-03-28T15:28:56.602Z,3.13
2019-03-28T15:31:28.804Z,3.42
2019-03-28T15:34:01.249Z,2.90
2019-03-28T15:36:33.368Z,3.00
2019-03-28T15:39:07.328Z,4.67
2019-03-28T15:41:40.196Z,3.07
2019-03-28T15:44:12.774Z,3.27
2019-03-28T15:46:44.819Z,3.17
2019-03-28T15:49:17.377Z,3.77
2019-03-28T15:51:50.023Z,3.50
2019-03-28T15:54:23.564Z,3.90
2019-03-28T15:56:58.499Z,3.80
2019-03-28T15:59:29.750Z,3.62
2019-03-28T16:02:01.848Z,3.40
2019-03-28T16:04:34.320Z,4.20
2019-03-28T16:07:07.720Z,3.60
2019-03-28T16:09:40.046Z,3.45
2019-03-28T16:12:12.762Z,3.63
2019-03-28T16:14:44.848Z,3.20
2019-03-28T16:17:16.965Z,3.33
2019-03-28T16:19:48.992Z,3.50
2019-03-28T16:22:21.527Z,3.30
2019-03-28T16:24:54.067Z,3.65
2019-03-28T16:27:27.078Z,4.50
2019-03-28T16:29:59.995Z,3.97
2019-03-28T16:32:32.561Z,3.67
2019-03-28T16:35:05.439Z,3.70
2019-03-28T16:37:37.511Z,4.03
2019-03-28T16:40:10.189Z,3.73
2019-03-28T16:42:42.232Z,3.50
2019-03-28T16:45:14.336Z,3.93
2019-03-28T16:47:46.427Z,4.40
2019-03-28T16:50:18.657Z,3.50
2019-03-28T16:52:51.155Z,3.50
2019-03-28T16:55:26.586Z,3.70
2019-03-28T16:57:57.331Z,3.55
2019-03-28T17:00:47.587Z,3.77
2019-03-28T17:03:20.107Z,4.20
2019-03-28T17:05:52.167Z,3.70
2019-03-28T17:08:25.468Z,4.53
2019-03-28T17:10:59.004Z,4.53
2019-03-28T17:13:31.116Z,4.30
2019-03-28T17:16:03.199Z,4.50
2019-03-28T17:18:35.730Z,4.40
2019-03-28T17:21:09.083Z,4.95
2019-03-28T17:23:41.173Z,4.10
2019-03-28T17:26:13.544Z,4.60
2019-03-28T17:28:45.665Z,4.37
2019-03-28T17:31:18.863Z,4.30
2019-03-28T17:33:51.390Z,4.40
2019-03-28T17:36:26.622Z,4.83
2019-03-28T17:38:57.699Z,5.10
2019-03-28T17:41:30.263Z,4.80
2019-03-28T17:44:02.331Z,4.67
2019-03-28T17:46:35.077Z,4.28
2019-03-28T17:49:07.151Z,4.10
2019-03-28T17:51:40.580Z,3.50
2019-03-28T17:54:13.209Z,4.22
2019-03-28T17:56:46.115Z,4.00
2019-03-28T17:59:18.148Z,3.63
2019-03-28T18:01:50.691Z,3.87
2019-03-28T18:04:23.504Z,4.40
2019-03-28T18:06:55.794Z,4.37
2019-03-28T18:09:27.927Z,4.17
2019-03-28T18:12:00.370Z,4.10
2019-03-28T18:14:32.367Z,4.47
2019-03-28T18:17:04.384Z,3.77
2019-03-28T18:19:36.442Z,3.50
2019-03-28T18:22:10.057Z,12.95
2019-03-28T18:24:42.542Z,23.67
2019-03-28T18:27:14.691Z,12.47
2019-03-28T18:29:46.819Z,7.47
2019-03-28T18:32:19.433Z,21.90
2019-03-28T18:35:04.579Z,9.73
2019-03-28T18:37:25.490Z,5.30
2019-03-28T18:39:57.536Z,5.80
2019-03-28T18:42:30.059Z,5.33
2019-03-28T18:45:02.475Z,4.67
2019-03-28T18:47:35.002Z,4.60
2019-03-28T18:50:08.197Z,5.00
2019-03-28T18:52:40.254Z,5.17
2019-03-28T18:55:13.152Z,4.17
2019-03-28T18:57:45.932Z,5.03
2019-03-28T19:00:19.204Z,4.30
2019-03-28T19:02:51.315Z,4.60
2019-03-28T19:05:23.431Z,3.92
2019-03-28T19:07:55.541Z,4.30
2019-03-28T19:10:27.992Z,4.37
2019-03-28T19:13:00.369Z,4.40
2019-03-28T19:15:32.438Z,4.10
2019-03-28T19:18:04.536Z,4.47
2019-03-28T19:20:36.969Z,4.83
2019-03-28T19:23:09.048Z,4.60
2019-03-28T19:25:41.500Z,4.70
2019-03-28T19:28:27.630Z,4.63
2019-03-28T19:30:47.687Z,4.00
2019-03-28T19:33:19.920Z,12.90
2019-03-28T19:35:53.104Z,5.85
2019-03-28T19:38:26.089Z,5.97
2019-03-28T19:40:58.723Z,6.40
2019-03-28T19:43:31.168Z,6.07
2019-03-28T19:46:03.663Z,4.23
2019-03-28T19:48:35.769Z,3.87
2019-03-28T19:51:07.977Z,3.80
2019-03-28T19:53:40.270Z,4.05
2019-03-28T19:56:12.478Z,3.80
2019-03-28T19:58:44.914Z,3.57
2019-03-28T20:01:17.011Z,3.70
2019-03-28T20:03:52.237Z,3.50
2019-03-28T20:06:24.302Z,3.70
2019-03-28T20:08:56.571Z,3.57
2019-03-28T20:11:29.431Z,3.40
2019-03-28T20:14:01.485Z,3.07
2019-03-28T20:16:33.566Z,3.67
2019-03-28T20:19:05.658Z,3.13
2019-03-28T20:21:38.454Z,3.15
2019-03-28T20:24:11.166Z,3.37
2019-03-28T20:26:43.257Z,3.47
2019-03-28T20:29:15.862Z,3.33
2019-03-28T20:31:47.927Z,3.40
2019-03-28T20:34:20.488Z,3.70
2019-03-28T20:36:53.250Z,3.27
2019-03-28T20:39:25.598Z,3.37
2019-03-28T20:41:57.731Z,4.10
2019-03-28T20:44:30.281Z,3.73
2019-03-28T20:47:03.364Z,3.62
2019-03-28T20:49:35.443Z,3.87
2019-03-28T20:52:09.489Z,4.50
2019-03-28T20:54:41.624Z,4.90
2019-03-28T20:57:13.966Z,4.23
2019-03-28T20:59:47.008Z,4.53
2019-03-28T21:02:19.346Z,4.20
2019-03-28T21:04:51.538Z,4.23
2019-03-28T21:07:23.924Z,4.33
2019-03-28T21:09:56.136Z,4.30
2019-03-28T21:12:28.211Z,4.20
2019-03-28T21:15:00.329Z,4.17
2019-03-28T21:17:33.306Z,3.90
2019-03-28T21:20:06.363Z,3.90
2019-03-28T21:22:38.821Z,3.75
2019-03-28T21:25:10.861Z,3.63
2019-03-28T21:27:43.365Z,3.50
2019-03-28T21:30:18.503Z,3.58
2019-03-28T21:32:55.530Z,3.93
2019-03-28T21:35:25.889Z,3.83
2019-03-28T21:37:58.272Z,4.13
2019-03-28T21:40:30.831Z,4.22
2019-03-28T21:43:03.267Z,4.83
2019-03-28T21:45:35.320Z,4.87
2019-03-28T21:48:07.571Z,4.97
2019-03-28T21:50:40.080Z,5.43
2019-03-28T21:53:12.193Z,5.35
2019-03-28T21:55:54.387Z,6.03
2019-03-28T21:58:18.325Z,6.00
2019-03-28T22:00:50.508Z,5.77
2019-03-28T22:03:22.711Z,5.73
2019-03-28T22:05:54.806Z,5.90
2019-03-28T22:08:27.238Z,5.60
2019-03-28T22:10:59.399Z,6.10
2019-03-28T22:13:31.891Z,6.50
2019-03-28T22:16:07.456Z,5.83
2019-03-28T22:18:39.425Z,7.00
2019-03-28T22:21:11.529Z,6.30
2019-03-28T22:23:43.628Z,6.43
2019-03-28T22:26:16.100Z,5.83
2019-03-28T22:28:48.589Z,6.77
2019-03-28T22:31:21.982Z,7.17
2019-03-28T22:33:54.779Z,6.93
2019-03-28T22:36:27.713Z,7.78
2019-03-28T22:38:59.776Z,7.85
2019-03-28T22:41:32.198Z,8.20
2019-03-28T22:44:04.802Z,8.95
2019-03-28T22:46:39.644Z,9.77
2019-03-28T22:49:10.572Z,9.83
2019-03-28T22:51:42.684Z,8.33
2019-03-28T22:54:15.173Z,7.77
2019-03-28T22:56:47.652Z,7.70
2019-03-28T22:59:19.721Z,7.60
2019-03-28T23:01:51.796Z,11.47
2019-03-28T23:04:23.910Z,10.83
2019-03-28T23:07:09.987Z,11.17
2019-03-28T23:09:29.966Z,9.50
2019-03-28T23:12:03.461Z,12.97
2019-03-28T23:14:36.757Z,11.28
2019-03-28T23:17:08.769Z,15.23
2019-03-28T23:19:41.250Z,10.60
2019-03-28T23:22:13.423Z,8.00
2019-03-28T23:24:46.199Z,8.30
2019-03-28T23:27:18.297Z,7.20
2019-03-28T23:29:50.369Z,7.70
2019-03-28T23:32:23.419Z,8.00
2019-03-28T23:34:55.878Z,13.05
2019-03-28T23:37:28.484Z,16.23
2019-03-28T23:40:00.884Z,13.00
2019-03-28T23:42:34.321Z,8.67
2019-03-28T23:45:09.022Z,8.60
2019-03-28T23:47:42.927Z,8.53
2019-03-28T23:50:15.011Z,7.60
2019-03-28T23:52:47.496Z,8.30
2019-03-28T23:55:20.098Z,7.47
2019-03-28T23:57:52.598Z,8.47
